createdAt,value
2022-08-03T00:00:41.040Z,2.63
2022-08-03T00:03:08.574Z,3.35
2022-08-03T00:05:37.710Z,3.00
2022-08-03T00:08:05.618Z,2.97
2022-08-03T00:10:34.477Z,3.28
2022-08-03T00:13:01.977Z,2.97
2022-08-03T00:15:31.747Z,3.72
2022-08-03T00:17:59.355Z,3.33
2022-08-03T00:20:27.015Z,2.88
2022-08-03T00:22:54.574Z,4.00
2022-08-03T00:25:22.276Z,3.70
2022-08-03T00:27:50.412Z,3.90
2022-08-03T00:30:18.632Z,4.28
2022-08-03T00:32:47.450Z,4.60
2022-08-03T00:35:36.882Z,4.28
2022-08-03T00:38:02.458Z,3.50
2022-08-03T00:40:30.264Z,3.10
2022-08-03T00:43:02.944Z,3.13
2022-08-03T00:45:33.452Z,2.88
2022-08-03T00:48:01.829Z,3.00
2022-08-03T00:50:31.321Z,2.87
2022-08-03T00:53:00.264Z,2.90
2022-08-03T00:55:28.220Z,3.20
2022-08-03T00:57:56.382Z,2.90
2022-08-03T01:00:26.798Z,2.90
2022-08-03T01:02:54.870Z,2.77
2022-08-03T01:05:22.620Z,2.88
2022-08-03T01:08:29.037Z,2.63
2022-08-03T01:11:15.211Z,2.83
2022-08-03T01:14:01.582Z,2.50
2022-08-03T01:16:51.477Z,2.70
2022-08-03T01:19:31.041Z,2.97
2022-08-03T01:22:19.761Z,3.10
2022-08-03T01:25:03.219Z,2.80
2022-08-03T01:27:55.482Z,3.30
2022-08-03T01:30:28.891Z,2.50
2022-08-03T01:33:03.477Z,2.70
2022-08-03T01:35:45.807Z,2.75
2022-08-03T01:38:23.215Z,2.90
2022-08-03T01:40:54.974Z,2.85
2022-08-03T01:44:27.264Z,3.10
2022-08-03T01:46:17.539Z,2.63
2022-08-03T01:48:47.844Z,3.05
2022-08-03T01:51:20.393Z,3.20
2022-08-03T01:53:50.393Z,2.80
2022-08-03T01:56:20.624Z,3.70
2022-08-03T01:58:51.598Z,3.33
2022-08-03T02:01:21.820Z,2.90
2022-08-03T02:03:59.557Z,3.20
2022-08-03T02:07:01.318Z,3.20
2022-08-03T02:09:21.501Z,2.70
2022-08-03T02:11:51.406Z,3.15
2022-08-03T02:14:20.591Z,3.35
2022-08-03T02:16:51.480Z,3.00
2022-08-03T02:19:19.965Z,3.60
2022-08-03T02:21:56.285Z,3.23
2022-08-03T02:24:30.232Z,3.10
2022-08-03T02:26:59.587Z,3.25
2022-08-03T02:29:39.734Z,3.53
2022-08-03T02:32:17.045Z,3.08
2022-08-03T02:34:49.384Z,3.37
2022-08-03T02:37:20.111Z,2.97
2022-08-03T02:39:49.611Z,3.17
2022-08-03T02:42:21.871Z,3.10
2022-08-03T02:44:53.050Z,3.03
2022-08-03T02:47:21.799Z,2.67
2022-08-03T02:49:52.325Z,3.05
2022-08-03T02:52:27.047Z,2.80
2022-08-03T02:55:00.513Z,3.08
2022-08-03T02:57:31.076Z,2.97
2022-08-03T03:00:00.283Z,3.07
2022-08-03T03:02:29.449Z,3.42
2022-08-03T03:05:53.266Z,3.15
2022-08-03T03:07:51.684Z,3.05
2022-08-03T03:10:23.581Z,3.28
2022-08-03T03:12:55.049Z,3.50
2022-08-03T03:15:27.359Z,3.58
2022-08-03T03:17:55.844Z,3.72
2022-08-03T03:20:29.498Z,4.03
2022-08-03T03:23:02.004Z,3.60
2022-08-03T03:25:33.522Z,3.60
2022-08-03T03:28:02.181Z,3.35
2022-08-03T03:30:30.644Z,2.95
2022-08-03T03:32:59.424Z,2.63
2022-08-03T03:35:28.319Z,2.83
2022-08-03T03:37:55.982Z,3.10
2022-08-03T03:40:24.098Z,2.90
2022-08-03T03:42:52.022Z,2.83
2022-08-03T03:45:21.084Z,2.63
2022-08-03T03:47:48.810Z,3.40
2022-08-03T03:50:18.572Z,2.93
2022-08-03T03:52:46.518Z,3.03
2022-08-03T03:55:18.433Z,2.58
2022-08-03T03:57:46.593Z,2.80
2022-08-03T04:00:15.689Z,2.90
2022-08-03T04:02:43.487Z,2.40
2022-08-03T04:05:29.695Z,2.75
2022-08-03T04:08:20.128Z,2.83
2022-08-03T04:10:59.285Z,2.63
2022-08-03T04:13:38.123Z,2.80
2022-08-03T04:16:08.084Z,2.87
2022-08-03T04:18:42.241Z,3.10
2022-08-03T04:21:13.474Z,3.03
2022-08-03T04:23:45.450Z,2.72
2022-08-03T04:26:15.673Z,2.80
2022-08-03T04:28:46.385Z,2.80
2022-08-03T04:31:16.476Z,2.85
2022-08-03T04:33:46.138Z,3.13
2022-08-03T04:36:18.470Z,2.85
2022-08-03T04:39:07.206Z,3.42
2022-08-03T04:42:08.277Z,3.70
2022-08-03T04:44:28.648Z,3.35
2022-08-03T04:46:58.466Z,3.88
2022-08-03T04:49:26.667Z,3.72
2022-08-03T04:51:54.433Z,3.35
2022-08-03T04:54:21.911Z,3.47
2022-08-03T04:56:49.367Z,3.55
2022-08-03T04:59:18.109Z,4.32
2022-08-03T05:01:45.720Z,4.00
2022-08-03T05:04:13.732Z,4.00
2022-08-03T05:06:47.874Z,4.23
2022-08-03T05:09:25.948Z,4.40
2022-08-03T05:12:04.032Z,4.40
2022-08-03T05:14:31.591Z,4.70
2022-08-03T05:16:59.137Z,4.53
2022-08-03T05:19:26.747Z,4.27
2022-08-03T05:21:54.347Z,4.47
2022-08-03T05:24:22.009Z,4.05
2022-08-03T05:26:49.632Z,4.63
2022-08-03T05:29:17.158Z,4.03
2022-08-03T05:31:44.657Z,4.37
2022-08-03T05:34:12.234Z,4.28
2022-08-03T05:36:39.977Z,4.22
2022-08-03T05:39:07.550Z,3.90
2022-08-03T05:41:37.162Z,4.13
2022-08-03T05:44:05.537Z,3.77
2022-08-03T05:46:33.064Z,3.75
2022-08-03T05:49:01.843Z,3.83
2022-08-03T05:51:30.546Z,3.90
2022-08-03T05:53:58.133Z,3.70
2022-08-03T05:56:25.797Z,3.50
2022-08-03T05:58:54.923Z,4.03
2022-08-03T06:01:22.945Z,3.70
2022-08-03T06:03:52.445Z,3.53
2022-08-03T06:06:20.015Z,3.90
2022-08-03T06:08:49.082Z,3.53
2022-08-03T06:11:16.950Z,3.83
2022-08-03T06:13:45.165Z,3.58
2022-08-03T06:16:12.808Z,3.25
2022-08-03T06:18:41.146Z,3.50
2022-08-03T06:21:15.399Z,3.50
2022-08-03T06:23:54.446Z,3.28
2022-08-03T06:26:28.096Z,3.15
2022-08-03T06:28:57.562Z,3.65
2022-08-03T06:31:33.289Z,3.40
2022-08-03T06:34:32.155Z,3.43
2022-08-03T06:36:53.074Z,4.38
2022-08-03T06:39:23.619Z,3.50
2022-08-03T06:41:52.653Z,4.00
2022-08-03T06:44:20.716Z,3.50
2022-08-03T06:46:48.297Z,3.57
2022-08-03T06:49:15.862Z,3.63
2022-08-03T06:52:06.154Z,3.95
2022-08-03T06:54:33.329Z,3.38
2022-08-03T06:57:01.569Z,3.08
2022-08-03T07:00:10.593Z,3.43
2022-08-03T07:02:19.765Z,3.90
2022-08-03T07:04:49.373Z,3.25
2022-08-03T07:07:17.759Z,3.75
2022-08-03T07:09:57.182Z,3.97
2022-08-03T07:12:29.581Z,3.57
2022-08-03T07:15:02.893Z,4.18
2022-08-03T07:17:34.988Z,3.53
2022-08-03T07:20:05.702Z,3.42
2022-08-03T07:22:33.805Z,3.42
2022-08-03T07:25:01.441Z,3.20
2022-08-03T07:27:31.300Z,3.35
2022-08-03T07:30:00.098Z,3.28
2022-08-03T07:32:31.762Z,3.72
2022-08-03T07:35:01.126Z,3.72
2022-08-03T07:37:31.219Z,3.60
2022-08-03T07:39:59.805Z,4.25
2022-08-03T07:42:29.014Z,4.57
2022-08-03T07:44:57.504Z,3.70
2022-08-03T07:47:35.379Z,3.90
2022-08-03T07:50:04.588Z,3.70
2022-08-03T07:52:50.478Z,2.95
2022-08-03T07:55:24.634Z,3.10
2022-08-03T07:58:06.512Z,3.72
2022-08-03T08:00:34.618Z,4.47
2022-08-03T08:03:02.976Z,5.13
2022-08-03T08:05:30.626Z,4.57
2022-08-03T08:07:58.168Z,4.63
2022-08-03T08:10:26.104Z,5.13
2022-08-03T08:12:54.121Z,5.25
2022-08-03T08:15:21.960Z,4.57
2022-08-03T08:17:52.379Z,4.70
2022-08-03T08:20:27.818Z,4.70
2022-08-03T08:22:58.358Z,4.70
2022-08-03T08:25:31.468Z,3.90
2022-08-03T08:28:29.132Z,3.93
2022-08-03T08:30:52.360Z,3.55
2022-08-03T08:33:23.353Z,3.50
2022-08-03T08:35:53.852Z,4.00
2022-08-03T08:38:22.456Z,4.50
2022-08-03T08:40:51.127Z,3.90
2022-08-03T08:43:18.679Z,3.63
2022-08-03T08:45:47.661Z,3.92
2022-08-03T08:48:18.657Z,3.40
2022-08-03T08:50:47.010Z,3.42
2022-08-03T08:53:17.402Z,3.10
2022-08-03T08:55:59.131Z,3.30
2022-08-03T08:58:37.347Z,3.20
2022-08-03T09:01:06.783Z,3.47
2022-08-03T09:03:34.889Z,3.83
2022-08-03T09:06:02.861Z,3.27
2022-08-03T09:08:32.304Z,3.28
2022-08-03T09:11:00.642Z,3.45
2022-08-03T09:13:29.438Z,3.33
2022-08-03T09:16:16.481Z,4.13
2022-08-03T09:18:49.426Z,4.40
2022-08-03T09:21:31.769Z,4.10
2022-08-03T09:24:04.421Z,4.68
2022-08-03T09:26:37.056Z,4.28
2022-08-03T09:29:13.191Z,3.63
2022-08-03T09:31:44.861Z,4.00
2022-08-03T09:34:15.532Z,3.97
2022-08-03T09:36:51.084Z,4.40
2022-08-03T09:39:42.105Z,3.45
2022-08-03T09:42:18.348Z,3.17
2022-08-03T09:44:50.700Z,3.30
2022-08-03T09:47:30.518Z,4.20
2022-08-03T09:50:02.456Z,5.38
2022-08-03T09:52:38.944Z,6.78
2022-08-03T09:56:32.551Z,10.23
2022-08-03T09:58:09.680Z,7.47
2022-08-03T10:00:56.407Z,7.00
2022-08-03T10:03:25.430Z,6.00
2022-08-03T10:05:58.993Z,7.20
2022-08-03T10:08:27.526Z,5.85
2022-08-03T10:10:55.303Z,4.90
2022-08-03T10:13:23.851Z,4.10
2022-08-03T10:16:22.082Z,4.75
2022-08-03T10:18:39.307Z,4.10
2022-08-03T10:21:10.866Z,3.97
2022-08-03T10:23:39.193Z,3.53
2022-08-03T10:26:08.414Z,4.22
2022-08-03T10:28:44.944Z,3.85
2022-08-03T10:31:14.621Z,5.30
2022-08-03T10:33:51.966Z,4.97
2022-08-03T10:36:28.153Z,5.10
2022-08-03T10:38:57.390Z,4.53
2022-08-03T10:41:31.723Z,4.13
2022-08-03T10:44:05.851Z,4.28
2022-08-03T10:46:35.798Z,4.20
2022-08-03T10:49:04.301Z,4.27
2022-08-03T10:51:32.659Z,4.20
2022-08-03T10:54:01.757Z,3.40
2022-08-03T10:56:50.879Z,5.10
2022-08-03T11:00:02.245Z,3.45
2022-08-03T11:03:03.872Z,2.93
2022-08-03T11:05:59.038Z,2.80
2022-08-03T11:08:28.372Z,2.80
2022-08-03T11:11:16.118Z,3.22
2022-08-03T11:14:04.855Z,2.67
2022-08-03T11:16:38.191Z,2.80
2022-08-03T11:19:08.856Z,3.13
2022-08-03T11:21:51.626Z,2.95
2022-08-03T11:24:37.552Z,2.58
2022-08-03T11:27:30.927Z,2.78
2022-08-03T11:30:10.477Z,3.00
2022-08-03T11:32:38.322Z,2.58
2022-08-03T11:35:26.204Z,3.22
2022-08-03T11:38:04.817Z,2.70
2022-08-03T11:40:51.003Z,2.80
2022-08-03T11:43:31.451Z,2.70
2022-08-03T11:46:07.392Z,2.67
2022-08-03T11:48:46.697Z,2.70
2022-08-03T11:51:29.583Z,5.00
2022-08-03T11:54:06.578Z,3.97
2022-08-03T11:56:48.567Z,3.40
2022-08-03T11:59:22.073Z,3.80
2022-08-03T12:01:53.848Z,3.10
2022-08-03T12:04:21.798Z,3.00
2022-08-03T12:07:07.164Z,3.35
2022-08-03T12:09:36.770Z,3.20
2022-08-03T12:12:04.716Z,3.78
2022-08-03T12:14:50.375Z,3.15
2022-08-03T12:17:22.157Z,3.03
2022-08-03T12:19:52.433Z,6.30
2022-08-03T12:22:35.641Z,5.67
2022-08-03T12:25:07.459Z,4.18
2022-08-03T12:27:35.923Z,4.40
2022-08-03T12:30:05.420Z,4.00
2022-08-03T12:32:33.221Z,3.75
2022-08-03T12:35:06.177Z,3.90
2022-08-03T12:37:34.290Z,3.85
2022-08-03T12:40:09.977Z,4.13
2022-08-03T12:42:40.182Z,4.10
2022-08-03T12:45:22.446Z,4.22
2022-08-03T12:47:58.591Z,4.00
2022-08-03T12:50:34.853Z,3.67
2022-08-03T12:53:05.621Z,3.70
2022-08-03T12:55:57.552Z,3.55
2022-08-03T12:58:34.374Z,3.67
2022-08-03T13:01:10.142Z,3.87
2022-08-03T13:03:49.687Z,3.70
2022-08-03T13:06:25.799Z,3.47
2022-08-03T13:09:07.436Z,3.63
2022-08-03T13:11:55.507Z,3.70
2022-08-03T13:14:23.939Z,3.43
2022-08-03T13:16:51.920Z,3.33
2022-08-03T13:19:19.539Z,3.08
2022-08-03T13:22:01.690Z,3.40
2022-08-03T13:24:33.636Z,3.40
2022-08-03T13:27:22.052Z,3.40
2022-08-03T13:29:50.909Z,3.20
2022-08-03T13:32:18.489Z,3.13
2022-08-03T13:34:46.255Z,3.50
2022-08-03T13:37:14.775Z,3.80
2022-08-03T13:40:00.336Z,3.77
2022-08-03T13:42:35.141Z,3.70
2022-08-03T13:45:04.206Z,3.60
2022-08-03T13:47:32.454Z,3.28
2022-08-03T13:50:02.709Z,3.63
2022-08-03T13:52:36.156Z,3.70
2022-08-03T13:55:06.176Z,3.40
2022-08-03T13:58:02.349Z,3.45
2022-08-03T14:00:28.631Z,3.85
2022-08-03T14:03:12.794Z,3.67
2022-08-03T14:05:42.142Z,3.50
2022-08-03T14:08:11.102Z,3.92
2022-08-03T14:10:41.909Z,3.45
2022-08-03T14:13:11.186Z,3.83
2022-08-03T14:15:39.152Z,3.78
2022-08-03T14:18:15.251Z,3.60
2022-08-03T14:20:50.099Z,3.85
2022-08-03T14:23:22.042Z,3.47
2022-08-03T14:25:52.579Z,4.00
2022-08-03T14:28:23.818Z,3.20
2022-08-03T14:30:58.732Z,3.70
2022-08-03T14:33:28.572Z,3.70
2022-08-03T14:35:56.455Z,4.03
2022-08-03T14:38:25.107Z,3.33
2022-08-03T14:40:53.491Z,3.65
2022-08-03T14:43:22.921Z,3.67
2022-08-03T14:45:53.762Z,3.97
2022-08-03T14:50:31.051Z,4.00
2022-08-03T14:51:10.493Z,3.70
2022-08-03T14:53:38.143Z,3.65
2022-08-03T14:56:10.103Z,3.63
2022-08-03T14:58:38.509Z,3.80
2022-08-03T15:02:04.648Z,4.15
2022-08-03T15:03:55.268Z,3.70
2022-08-03T15:06:22.789Z,4.38
2022-08-03T15:09:13.623Z,4.73
2022-08-03T15:11:41.525Z,5.47
2022-08-03T15:14:09.725Z,4.47
2022-08-03T15:16:38.485Z,4.90
2022-08-03T15:20:01.173Z,4.85
2022-08-03T15:21:53.894Z,4.43
2022-08-03T15:24:21.477Z,4.18
2022-08-03T15:26:48.964Z,4.43
2022-08-03T15:30:09.519Z,4.30
2022-08-03T15:32:09.032Z,4.43
2022-08-03T15:34:37.230Z,3.80
2022-08-03T15:37:15.179Z,3.95
2022-08-03T15:39:59.176Z,3.55
2022-08-03T15:42:29.702Z,3.95
2022-08-03T15:44:57.344Z,3.55
2022-08-03T15:47:24.950Z,4.43
2022-08-03T15:49:52.660Z,4.10
2022-08-03T15:52:20.359Z,4.28
2022-08-03T15:54:47.939Z,3.75
2022-08-03T15:57:15.479Z,4.00
2022-08-03T15:59:43.018Z,3.80
2022-08-03T16:02:10.781Z,3.90
2022-08-03T16:04:38.324Z,4.10
2022-08-03T16:07:05.963Z,3.88
2022-08-03T16:09:42.055Z,4.60
2022-08-03T16:12:16.258Z,4.40
2022-08-03T16:14:54.425Z,4.30
2022-08-03T16:17:22.881Z,4.38
2022-08-03T16:19:54.708Z,4.05
2022-08-03T16:22:23.991Z,4.97
2022-08-03T16:24:53.454Z,4.77
2022-08-03T16:27:37.342Z,4.22
2022-08-03T16:30:12.326Z,4.10
2022-08-03T16:32:40.168Z,4.32
2022-08-03T16:35:08.241Z,3.90
2022-08-03T16:37:38.739Z,3.80
2022-08-03T16:40:19.276Z,3.70
2022-08-03T16:42:47.692Z,4.00
2022-08-03T16:45:15.353Z,3.70
2022-08-03T16:47:42.939Z,3.50
2022-08-03T16:50:17.182Z,3.00
2022-08-03T16:52:48.483Z,3.50
2022-08-03T16:55:42.938Z,3.05
2022-08-03T16:58:06.025Z,3.97
2022-08-03T17:00:41.574Z,5.88
2022-08-03T17:03:12.538Z,6.80
2022-08-03T17:05:47.939Z,6.57
2022-08-03T17:08:26.132Z,7.60
2022-08-03T17:10:56.224Z,7.53
2022-08-03T17:13:38.864Z,6.82
2022-08-03T17:16:08.647Z,7.27
2022-08-03T17:18:42.273Z,7.57
2022-08-03T17:21:16.416Z,7.70
2022-08-03T17:24:20.794Z,7.90
2022-08-03T17:26:51.635Z,7.30
2022-08-03T17:29:25.079Z,7.10
2022-08-03T17:31:53.380Z,6.93
2022-08-03T17:34:26.312Z,5.68
2022-08-03T17:37:17.747Z,5.68
2022-08-03T17:39:59.831Z,5.40
2022-08-03T17:45:17.082Z,6.07
2022-08-03T17:47:57.466Z,6.90
2022-08-03T17:50:41.743Z,5.93
2022-08-03T17:53:24.041Z,6.18
2022-08-03T17:56:38.862Z,6.10
2022-08-03T17:59:12.049Z,5.90
2022-08-03T18:02:22.358Z,5.45
2022-08-03T18:05:16.603Z,5.82
2022-08-03T18:08:01.614Z,4.70
2022-08-03T18:10:35.135Z,4.23
2022-08-03T18:13:11.367Z,4.38
2022-08-03T18:15:47.295Z,3.95
2022-08-03T18:18:32.437Z,4.28
2022-08-03T18:21:06.852Z,4.50
2022-08-03T18:23:40.047Z,4.63
2022-08-03T18:26:12.011Z,6.53
2022-08-03T18:28:41.101Z,6.47
2022-08-03T18:31:13.026Z,5.07
2022-08-03T18:34:17.628Z,4.50
2022-08-03T18:36:49.930Z,3.67
2022-08-03T18:39:19.637Z,3.65
2022-08-03T18:41:47.439Z,3.40
2022-08-03T18:44:46.540Z,3.10
2022-08-03T18:47:23.550Z,2.90
2022-08-03T18:49:55.630Z,3.33
2022-08-03T18:52:37.352Z,3.33
2022-08-03T18:55:21.056Z,2.80
2022-08-03T18:58:29.789Z,3.00
2022-08-03T19:01:15.417Z,3.17
2022-08-03T19:04:24.243Z,3.17
2022-08-03T19:06:57.726Z,3.42
2022-08-03T19:09:34.689Z,2.72
2022-08-03T19:15:00.520Z,3.25
2022-08-03T19:17:36.216Z,2.90
2022-08-03T19:20:09.316Z,2.65
2022-08-03T19:22:39.932Z,2.83
2022-08-03T19:25:13.680Z,2.90
2022-08-03T19:27:46.002Z,2.80
2022-08-03T19:30:38.895Z,3.37
2022-08-03T19:33:14.559Z,5.57
2022-08-03T19:35:52.109Z,6.57
2022-08-03T19:38:29.230Z,9.77
2022-08-03T19:41:04.488Z,9.40
2022-08-03T19:43:52.875Z,9.90
2022-08-03T19:46:30.217Z,9.25
2022-08-03T19:49:14.736Z,10.93
2022-08-03T19:52:01.225Z,11.18
2022-08-03T19:54:53.118Z,11.73
2022-08-03T19:57:25.184Z,5.13
2022-08-03T19:59:54.984Z,3.10
2022-08-03T20:02:26.873Z,2.97
2022-08-03T20:05:00.469Z,2.95
2022-08-03T20:07:31.170Z,3.00
2022-08-03T20:12:49.128Z,2.75
2022-08-03T20:18:04.611Z,2.60
2022-08-03T20:20:37.298Z,2.25
2022-08-03T20:23:19.603Z,2.33
2022-08-03T20:25:58.578Z,2.75
2022-08-03T20:28:55.389Z,2.60
2022-08-03T20:31:32.216Z,2.80
2022-08-03T20:34:04.531Z,3.00
2022-08-03T20:36:32.003Z,3.10
2022-08-03T20:39:00.019Z,3.28
2022-08-03T20:41:27.579Z,4.28
2022-08-03T20:43:55.105Z,4.03
2022-08-03T20:46:34.302Z,4.25
2022-08-03T20:49:09.459Z,4.00
2022-08-03T20:51:50.524Z,4.28
2022-08-03T20:54:30.840Z,4.00
2022-08-03T20:57:04.483Z,4.00
2022-08-03T20:59:50.271Z,4.38
2022-08-03T21:02:29.619Z,3.70
2022-08-03T21:05:08.566Z,3.83
2022-08-03T21:08:05.002Z,3.92
2022-08-03T21:10:37.865Z,4.03
2022-08-03T21:13:04.327Z,5.67
2022-08-03T21:13:10.126Z,3.08
2022-08-03T21:13:10.392Z,2.90
2022-08-03T21:13:11.155Z,2.90
2022-08-03T21:13:18.943Z,3.97
2022-08-03T21:16:07.145Z,3.70
2022-08-03T21:18:46.211Z,4.25
2022-08-03T21:21:16.419Z,4.20
2022-08-03T21:23:48.576Z,4.22
2022-08-03T21:26:20.029Z,4.93
2022-08-03T21:28:52.056Z,4.47
2022-08-03T21:31:25.213Z,5.10
2022-08-03T21:33:56.785Z,5.05
2022-08-03T21:36:26.908Z,4.95
2022-08-03T21:38:57.489Z,4.60
2022-08-03T21:41:27.866Z,4.20
2022-08-03T21:43:55.731Z,4.88
2022-08-03T21:46:24.131Z,4.22
2022-08-03T21:50:06.893Z,4.13
2022-08-03T21:51:49.754Z,4.50
2022-08-03T21:54:20.676Z,5.03
2022-08-03T21:56:48.807Z,4.78
2022-08-03T21:59:20.821Z,5.35
2022-08-03T22:01:51.541Z,6.32
2022-08-03T22:04:50.101Z,7.15
2022-08-03T22:07:10.980Z,7.70
2022-08-03T22:09:38.518Z,7.88
2022-08-03T22:12:06.735Z,7.20
2022-08-03T22:14:34.213Z,5.10
2022-08-03T22:17:06.190Z,4.57
2022-08-03T22:19:34.310Z,3.57
2022-08-03T22:22:06.302Z,3.75
2022-08-03T22:24:36.547Z,3.00
2022-08-03T22:27:22.711Z,2.80
2022-08-03T22:29:52.013Z,3.50
2022-08-03T22:32:20.482Z,3.20
2022-08-03T22:34:51.857Z,3.03
2022-08-03T22:37:22.181Z,2.83
2022-08-03T22:39:50.243Z,2.97
2022-08-03T22:42:19.795Z,2.92
2022-08-03T22:44:50.204Z,2.73
2022-08-03T22:47:22.545Z,2.83
2022-08-03T22:50:32.125Z,3.10
2022-08-03T22:52:42.670Z,3.08
2022-08-03T22:55:18.835Z,2.72
2022-08-03T22:57:55.614Z,2.63
2022-08-03T23:00:25.134Z,2.90
2022-08-03T23:02:54.370Z,2.70
2022-08-03T23:06:01.186Z,3.13
2022-08-03T23:08:15.440Z,2.70
2022-08-03T23:10:47.216Z,2.87
2022-08-03T23:13:17.484Z,2.33
2022-08-03T23:16:02.834Z,3.20
2022-08-03T23:18:37.272Z,2.80
2022-08-03T23:21:11.149Z,3.00
2022-08-03T23:23:44.392Z,3.10
2022-08-03T23:26:14.075Z,3.55
2022-08-03T23:28:45.491Z,3.67
2022-08-03T23:31:15.153Z,3.95
2022-08-03T23:33:45.182Z,4.10
2022-08-03T23:36:30.888Z,3.90
2022-08-03T23:39:02.657Z,3.70
2022-08-03T23:41:32.691Z,3.58
2022-08-03T23:44:03.664Z,3.10
2022-08-03T23:46:33.384Z,3.08
2022-08-03T23:49:01.093Z,3.00
2022-08-03T23:51:34.707Z,2.70
2022-08-03T23:54:14.490Z,3.13
2022-08-03T23:56:54.660Z,2.80
2022-08-03T23:59:32.430Z,3.08
